Latest Weather Observations for Sheffield

IDT60801

Issued at 6:35 pm EDT Sunday 26 October 2014 (issued every 30 minutes, with the page automatically refreshed every 10 minutes)

About weather observations | Map of weather stations | Latest weather observations for TAS | Other Formats
Station Details ID: 091291 Name: SHEFFIELD SCHOOL FARM Lat: -41.39 Lon: 146.32 Height: 294.2 m
Data from the previous 72 hours. | See also: Recent months at Sheffield
Date/Time
EDT
Temp
°C
App
Temp
°C
Dew
Point
Rel
Hum
%
Delta-T
°C
Wind Press
QNH
hPa
Press
MSL
hPa
Rain
since 9 am
mm
Dir
 
Spd
km/h
Gust
km/h
Spd
kts
Gust
kts
26/06:30pm 13.6 11.4 9.3 75 2.2 N 11 17 6 9 1010.4 1010.6 1.4
26/06:00pm 14.1 11.2 9.5 74 2.4 NNW 15 20 8 11 1010.5 1010.7 1.4
26/05:30pm 15.4 13.0 10.2 71 2.8 N 13 20 7 11 1010.3 1010.5 1.4
26/05:00pm 15.5 12.6 9.8 69 3.0 NNE 15 22 8 12 1010.2 1010.3 1.4
26/04:30pm 16.5 13.9 10.6 68 3.2 NNE 15 20 8 11 1010.4 1010.6 1.4
26/04:00pm 16.8 14.9 11.7 72 2.8 NNE 13 20 7 11 1010.4 1010.6 1.4
26/03:30pm 17.2 15.1 11.0 67 3.4 N 13 22 7 12 1010.9 1011.1 1.4
26/03:00pm 16.9 14.4 9.6 62 3.9 N 13 19 7 10 1011.0 1011.2 1.4
26/02:30pm 17.0 15.8 11.7 71 2.9 NNW 9 15 5 8 1011.5 1011.7 1.4
26/02:00pm 16.3 14.9 10.8 70 3.0 N 9 17 5 9 1011.5 1011.7 1.4
26/01:30pm 15.3 14.3 11.1 76 2.3 N 7 11 4 6 1011.8 1012.0 1.4
26/01:00pm 16.1 15.8 13.4 84 1.5 NNW 7 13 4 7 1012.4 1012.5 1.4
26/12:30pm 14.4 13.9 11.9 85 1.4 NW 6 7 3 4 1012.7 1012.8 1.4
26/12:00pm 13.0 12.1 10.5 85 1.3 ESE 6 9 3 5 1012.8 1012.9 0.2
26/11:30am 12.9 12.4 10.8 87 1.1 ESE 4 6 2 3 1013.1 1013.2 0.0
26/11:00am 12.7 11.8 11.3 91 0.7 ESE 7 11 4 6 1013.1 1013.2 0.0
26/10:30am 12.0 11.0 10.9 93 0.6 ESE 7 11 4 6 1013.4 1013.6 0.0
26/10:00am 11.6 10.1 10.7 94 0.5 SE 9 13 5 7 1013.3 1013.5 0.0
26/09:30am 11.4 9.8 10.3 93 0.6 E 9 11 5 6 1013.3 1013.5 0.0
26/09:00am 11.2 10.0 10.3 94 0.5 E 7 11 4 6 1013.3 1013.5 4.2
26/08:30am 10.9 9.3 10.1 95 0.4 E 9 13 5 7 1013.4 1013.6 4.2
26/08:00am 11.0 9.0 10.2 95 0.4 E 11 15 6 8 1013.2 1013.4 4.2
26/07:30am 11.0 9.5 10.4 96 0.3 E 9 13 5 7 1013.2 1013.4 4.2
26/07:00am 10.7 9.1 10.1 96 0.3 E 9 11 5 6 1013.0 1013.1 4.2
26/06:30am 10.8 9.6 10.2 96 0.3 E 7 11 4 6 1012.8 1012.9 4.0
26/06:00am 11.0 10.0 10.4 96 0.3 E 6 7 3 4 1012.8 1012.9 3.8
26/05:30am 11.1 10.1 10.3 95 0.4 ESE 6 7 3 4 1012.9 1013.0 3.6
26/05:00am 11.2 11.0 10.4 95 0.4 E 2 2 1 1 1012.8 1012.9 3.2
26/04:30am 11.3 11.5 10.5 95 0.4 CALM 0 0 0 0 1013.0 1013.1 2.2
26/04:00am 11.3 10.6 10.2 93 0.6 E 4 4 2 2 1013.1 1013.2 1.4
26/03:30am 11.4 10.4 10.3 93 0.6 NE 6 9 3 5 1013.4 1013.6 0.8
26/03:00am 11.5 9.9 10.2 92 0.7 NE 9 15 5 8 1013.4 1013.6 0.6
26/02:30am 11.5 9.5 10.2 92 0.7 NE 11 17 6 9 1013.3 1013.5 0.6
26/02:00am 11.6 9.8 10.7 94 0.5 ENE 11 19 6 10 1014.1 1014.3 0.6
26/01:30am 11.8 9.1 10.5 92 0.7 NE 15 22 8 12 1015.0 1015.2 0.6
26/01:00am 11.8 8.8 10.5 92 0.7 NNE 17 26 9 14 1015.7 1015.8 0.6
26/12:30am 11.9 8.5 10.6 92 0.7 NNE 19 30 10 16 1015.7 1015.8 0.4
26/12:00am 11.9 8.5 10.5 91 0.7 NNE 19 28 10 15 1015.9 1016.0 0.4
 
Date/Time
EDT
Temp
°C
App
Temp
°C
Dew
Point
Rel
Hum
%
Delta-T
°C
Wind Press
QNH
hPa
Press
MSL
hPa
Rain
since 9 am
mm
Dir
 
Spd
km/h
Gust
km/h
Spd
kts
Gust
kts
25/11:30pm 12.1 8.5 10.7 91 0.7 NNE 20 33 11 18 1015.9 1016.0 0.4
25/11:00pm 12.1 8.2 10.8 92 0.7 N 22 33 12 18 1015.8 1015.9 0.4
25/10:30pm 12.2 9.0 11.3 94 0.5 NNE 19 32 10 17 1016.1 1016.3 0.4
25/10:00pm 12.1 8.9 11.2 94 0.5 N 19 28 10 15 1016.2 1016.4 0.4
25/09:30pm 12.3 8.5 11.2 93 0.6 N 22 33 12 18 1016.2 1016.4 0.2
25/09:00pm 12.5 9.3 11.2 92 0.7 N 19 28 10 15 1016.4 1016.6 0.0
25/08:30pm 12.7 9.7 10.8 88 1.0 N 17 24 9 13 1016.4 1016.6 0.0
25/08:00pm 12.9 9.2 10.1 83 1.5 N 20 30 11 16 1016.0 1016.1 0.0
25/07:30pm 13.6 10.8 10.0 79 1.9 N 15 24 8 13 1015.8 1015.9 0.0
25/07:00pm 14.3 10.6 9.3 72 2.6 N 19 26 10 14 1015.2 1015.4 0.0
25/06:30pm 15.5 12.2 9.6 68 3.1 N 17 24 9 13 1014.6 1014.8 0.0
25/06:00pm 16.3 13.7 9.5 64 3.6 N 13 24 7 13 1014.5 1014.7 0.0
25/05:30pm 16.8 14.4 10.0 64 3.6 N 13 17 7 9 1014.2 1014.4 0.0
25/05:00pm 17.3 14.3 9.2 59 4.3 N 15 20 8 11 1014.3 1014.5 0.0
25/04:30pm 17.6 13.9 9.5 59 4.3 NNE 19 28 10 15 1014.1 1014.3 0.0
25/04:00pm 18.1 14.4 10.2 60 4.3 NNE 20 32 11 17 1014.2 1014.4 0.0
25/03:30pm 19.1 16.6 12.4 65 3.8 NNE 17 24 9 13 1014.2 1014.4 0.0
25/03:00pm 18.4 16.6 12.2 67 3.5 N 13 17 7 9 1014.0 1014.2 0.0
25/02:30pm 18.7 16.7 12.7 68 3.4 N 15 22 8 12 1013.9 1014.1 0.0
25/02:00pm 19.7 18.3 10.9 57 4.9 E 9 20 5 11 1014.1 1014.3 0.0
25/01:30pm 19.7 17.5 9.3 51 5.6 E 11 17 6 9 1014.4 1014.6 0.0
25/01:00pm 19.8 18.1 9.7 52 5.5 E 9 15 5 8 1014.4 1014.6 0.0
25/12:30pm 18.9 17.7 9.4 54 5.1 E 6 11 3 6 1014.6 1014.8 0.0
25/12:00pm 18.8 18.3 10.6 59 4.5 WSW 4 9 2 5 1015.1 1015.3 0.0
25/11:30am 18.6 17.8 9.7 56 4.8 E 4 9 2 5 1015.0 1015.2 0.0
25/11:00am 17.6 16.5 9.8 60 4.2 SE 6 9 3 5 1015.2 1015.4 0.0
25/10:30am 17.7 16.9 9.8 60 4.2 E 4 7 2 4 1015.2 1015.4 0.0
25/10:00am 16.8 15.4 9.5 62 3.9 SE 7 11 4 6 1015.2 1015.4 0.0
25/09:30am 16.1 15.2 9.1 63 3.7 SSW 4 9 2 5 1015.0 1015.2 0.0
25/09:00am 15.6 15.0 8.8 64 3.5 WNW 2 4 1 2 1014.6 1014.8 6.4
25/08:30am 15.3 15.1 9.2 67 3.2 CALM 0 0 0 0 1014.2 1014.4 6.4
25/08:00am 13.1 12.5 9.0 76 2.1 N 2 4 1 2 1013.9 1014.1 6.4
25/07:30am 11.6 10.4 8.1 79 1.7 N 4 6 2 3 1013.5 1013.7 6.4
25/07:00am 10.8 9.1 7.7 81 1.5 N 6 9 3 5 1013.2 1013.4 6.4
25/06:30am 10.3 9.2 7.0 80 1.6 NNW 2 7 1 4 1012.7 1012.8 6.4
25/06:00am 10.1 7.7 6.8 80 1.6 NW 9 13 5 7 1012.1 1012.2 6.4
25/05:30am 10.9 8.6 7.4 79 1.7 NNW 9 11 5 6 1011.6 1011.8 6.4
25/05:00am 11.1 8.7 7.2 77 1.9 W 9 13 5 7 1011.1 1011.3 6.4
25/04:30am 11.9 10.3 8.0 77 1.9 WSW 6 11 3 6 1010.9 1011.1 6.4
25/04:00am 10.7 9.8 7.8 82 1.4 NNE 2 4 1 2 1011.0 1011.2 6.4
25/03:30am 11.6 10.6 7.5 76 2.0 N 2 9 1 5 1010.9 1011.1 6.4
25/03:00am 11.9 10.3 7.8 76 2.0 W 6 11 3 6 1010.7 1010.9 6.4
25/02:30am 12.0 8.0 8.3 78 1.9 W 19 37 10 20 1010.3 1010.5 6.4
25/02:00am 11.6 9.6 8.6 82 1.5 WNW 9 17 5 9 1010.5 1010.7 6.4
25/01:30am 12.5 9.1 9.1 80 1.7 W 17 24 9 13 1010.4 1010.6 6.4
25/01:00am 11.4 9.7 11.1 98 0.2 NW 11 19 6 10 1010.5 1010.7 6.4
25/12:30am 11.5 10.1 11.0 97 0.3 NNW 9 11 5 6 1010.5 1010.7 6.4
25/12:00am 12.0 11.1 11.5 97 0.3 NW 7 11 4 6 1010.6 1010.8 6.4
 
Date/Time
EDT
Temp
°C
App
Temp
°C
Dew
Point
Rel
Hum
%
Delta-T
°C
Wind Press
QNH
hPa
Press
MSL
hPa
Rain
since 9 am
mm
Dir
 
Spd
km/h
Gust
km/h
Spd
kts
Gust
kts
24/11:30pm 12.4 11.3 11.9 97 0.3 NNW 9 11 5 6 1010.5 1010.7 6.4
24/11:00pm 12.7 12.2 12.2 97 0.3 NNW 6 7 3 4 1010.2 1010.3 6.4
24/10:30pm 13.5 13.3 13.0 97 0.3 NW 6 7 3 4 1010.3 1010.5 6.4
24/10:00pm 13.6 14.2 13.1 97 0.3 WNW 2 6 1 3 1010.7 1010.9 6.2
24/09:30pm 13.6 13.8 13.1 97 0.3 W 4 6 2 3 1010.8 1011.0 6.2
24/09:00pm 13.8 14.5 13.3 97 0.3 NW 2 6 1 3 1011.1 1011.3 6.2
24/08:30pm 13.8 14.1 13.3 97 0.3 NW 4 4 2 2 1010.8 1011.0 6.2
24/08:00pm 13.8 14.8 13.3 97 0.3 CALM 0 0 0 0 1010.6 1010.8 6.2
24/07:30pm 13.8 14.1 13.3 97 0.3 ESE 4 6 2 3 1010.1 1010.2 6.2
24/07:00pm 13.9 14.2 13.4 97 0.3 SE 4 6 2 3 1010.2 1010.3 6.2
24/06:30pm 13.9 13.6 13.4 97 0.3 ESE 7 9 4 5 1010.0 1010.1 6.2
24/06:00pm 13.7 13.5 13.1 96 0.3 SE 6 7 3 4 1010.5 1010.7 6.0
24/05:30pm 13.6 13.4 13.0 96 0.3 SE 6 9 3 5 1010.6 1010.8 5.8
24/05:00pm 13.5 13.1 13.0 97 0.3 SE 7 11 4 6 1010.7 1010.9 5.4
24/04:30pm 13.4 12.6 12.8 96 0.3 ESE 9 13 5 7 1010.7 1010.9 5.0
24/04:00pm 13.3 12.4 12.7 96 0.3 ESE 9 13 5 7 1011.5 1011.7 4.8
24/03:30pm 13.1 11.7 12.3 95 0.4 ESE 11 15 6 8 1012.1 1012.2 4.4
24/03:00pm 13.0 10.5 12.2 95 0.4 SE 17 20 9 11 1012.4 1012.5 4.0
24/02:30pm 12.8 9.8 12.0 95 0.4 SE 19 24 10 13 1012.8 1012.9 3.6
24/02:00pm 12.7 10.4 11.8 94 0.5 ESE 15 20 8 11 1013.5 1013.7 3.2
24/01:30pm 12.5 9.8 11.7 95 0.4 SE 17 20 9 11 1013.9 1014.1 2.8
24/01:00pm 12.2 9.4 11.4 95 0.4 SE 17 22 9 12 1014.3 1014.5 2.4
24/12:30pm 11.7 8.2 10.9 95 0.4 SE 20 24 11 13 1014.9 1015.1 2.2
24/12:00pm 11.4 7.8 10.6 95 0.4 ESE 20 28 11 15 1015.7 1015.8 1.8
24/11:30am 10.9 7.4 10.1 95 0.4 SE 19 22 10 12 1016.3 1016.5 1.6
24/11:00am 10.4 6.7 9.6 95 0.4 SE 19 24 10 13 1016.7 1016.9 1.4
24/10:30am 9.8 6.0 9.0 95 0.4 SE 19 24 10 13 1017.0 1017.2 1.0
24/10:00am 9.4 5.8 8.5 94 0.4 ESE 17 22 9 12 1017.4 1017.6 0.6
24/09:30am 9.2 5.9 8.0 92 0.6 ESE 15 22 8 12 1017.7 1017.9 0.2
24/09:00am 8.6 4.9 6.4 86 1.0 ESE 15 19 8 10 1018.0 1018.2 0.0
24/08:30am 8.8 4.9 5.4 79 1.6 ESE 15 19 8 10 1018.3 1018.5 0.0
24/08:00am 9.0 4.5 4.4 73 2.1 ESE 17 20 9 11 1018.4 1018.6 0.0
24/07:30am 8.8 4.6 4.0 72 2.1 E 15 22 8 12 1018.6 1018.8 0.0
24/07:00am 8.1 3.1 3.8 74 1.9 ESE 19 24 10 13 1018.8 1019.0 0.0
24/06:30am 7.7 3.5 3.7 76 1.7 ESE 15 19 8 10 1019.5 1019.7 0.0
24/06:00am 7.5 2.3 3.4 75 1.8 ESE 20 24 11 13 1019.5 1019.7 0.0
24/05:30am 7.3 2.1 3.4 76 1.7 ESE 20 26 11 14 1019.5 1019.7 0.0
24/05:00am 7.0 0.6 3.4 78 1.5 ESE 26 32 14 17 1019.7 1019.9 0.0
24/04:30am 6.9 1.7 3.7 80 1.4 ESE 20 28 11 15 1020.0 1020.2 0.0
24/04:00am 6.7 3.3 3.9 82 1.2 E 11 15 6 8 1020.5 1020.7 0.0
24/03:30am 5.7 3.0 3.5 86 0.9 SE 7 13 4 7 1021.0 1021.2 0.0
24/03:00am 4.6 0.6 2.9 89 0.7 SE 13 15 7 8 1021.3 1021.5 0.0
24/02:30am 5.7 3.1 3.4 85 1.0 SE 6 6 3 3 1021.7 1021.9 0.0
24/02:00am 5.7 3.0 3.7 87 0.9 ESE 7 9 4 5 1022.1 1022.4 0.0
24/01:30am 6.5 3.8 3.5 81 1.3 ESE 7 9 4 5 1022.4 1022.7 0.0
24/01:00am 7.6 5.4 3.6 76 1.7 ESE 4 6 2 3 1023.0 1023.2 0.0
24/12:30am 7.9 5.8 3.8 75 1.8 E 4 6 2 3 1023.3 1023.5 0.0
24/12:00am 8.1 7.0 5.0 81 1.4 CALM 0 0 0 0 1023.6 1023.8 0.0
 
Date/Time
EDT
Temp
°C
App
Temp
°C
Dew
Point
Rel
Hum
%
Delta-T
°C
Wind Press
QNH
hPa
Press
MSL
hPa
Rain
since 9 am
mm
Dir
 
Spd
km/h
Gust
km/h
Spd
kts
Gust
kts
23/11:30pm 7.8 5.4 5.1 83 1.2 E 7 11 4 6 1023.6 1023.8 0.0
23/11:00pm 8.2 7.4 6.3 88 0.9 CALM 0 6 0 3 1023.5 1023.7 0.0
23/10:30pm 8.9 8.1 6.5 85 1.1 CALM 0 0 0 0 1023.5 1023.7 0.0
23/10:00pm 9.8 9.2 7.2 84 1.2 CALM 0 0 0 0 1023.6 1023.8 0.0
23/09:30pm 9.6 8.1 7.0 84 1.2 WNW 4 6 2 3 1023.5 1023.7 0.0
23/09:00pm 9.2 7.3 6.5 83 1.3 NNW 6 7 3 4 1023.4 1023.6 0.0
23/08:30pm 9.7 7.5 6.4 80 1.6 NNW 7 7 4 4 1023.2 1023.4 0.0
23/08:00pm 10.4 8.4 7.1 80 1.6 NNW 7 9 4 5 1023.0 1023.2 0.0
23/07:30pm 11.4 9.0 7.1 75 2.1 NW 9 13 5 7 1022.8 1023.0 0.0
23/07:00pm 12.7 10.1 7.6 71 2.5 NNW 11 13 6 7 1022.3 1022.6 0.0

Other Formats:

Comma delimited format used in spreadsheet applications
http://www.bom.gov.au/fwo/IDT60801/IDT60801.94955.axf

JavaScript Object Notation format (JSON) in row-major order
http://www.bom.gov.au/fwo/IDT60801/IDT60801.94955.json